createdAt,value
2022-10-31T19:20:07.012Z,18.60
2022-10-31T19:21:06.952Z,18.66
2022-10-31T19:22:06.900Z,18.68
2022-10-31T19:23:10.486Z,18.70
2022-10-31T19:24:06.804Z,18.74
2022-10-31T19:25:10.566Z,18.58
2022-10-31T19:26:06.721Z,18.64
2022-10-31T19:27:06.679Z,18.67
2022-10-31T19:28:06.621Z,18.71
2022-10-31T19:29:06.578Z,18.68
2022-10-31T19:30:06.531Z,18.71
2022-10-31T19:31:06.488Z,18.70
2022-10-31T19:32:06.497Z,18.73
2022-10-31T19:33:06.543Z,18.73
2022-10-31T19:34:06.368Z,18.73
2022-10-31T19:35:06.358Z,18.76
2022-10-31T19:36:06.310Z,18.81
2022-10-31T19:37:06.455Z,18.73
2022-10-31T19:38:06.398Z,18.68
2022-10-31T19:39:06.182Z,18.74
2022-10-31T19:40:06.104Z,18.71
2022-10-31T19:41:06.054Z,18.70
2022-10-31T19:42:06.226Z,18.76
2022-10-31T19:43:05.960Z,18.74
2022-10-31T19:44:05.923Z,18.71
2022-10-31T19:45:05.881Z,18.81
2022-10-31T19:46:05.832Z,18.70
2022-10-31T19:47:05.784Z,18.73
2022-10-31T19:48:05.738Z,18.73
2022-10-31T19:49:05.703Z,18.70
2022-10-31T19:50:05.651Z,18.82
2022-10-31T19:51:05.609Z,18.81
2022-10-31T19:52:05.584Z,18.83
2022-10-31T19:53:05.525Z,18.82
2022-10-31T19:54:05.480Z,18.94
2022-10-31T19:55:05.438Z,18.83
2022-10-31T19:56:05.392Z,18.79
2022-10-31T19:57:05.350Z,18.78
2022-10-31T19:58:05.309Z,18.81
2022-10-31T19:59:05.271Z,18.76
2022-10-31T20:00:05.220Z,18.70
2022-10-31T20:01:05.274Z,18.82
2022-10-31T20:02:05.134Z,18.79
2022-10-31T20:03:05.151Z,18.83
2022-10-31T20:04:05.048Z,18.82
2022-10-31T20:05:05.092Z,18.78
2022-10-31T20:06:04.961Z,18.82
2022-10-31T20:07:04.918Z,18.82
2022-10-31T20:08:04.889Z,18.79
2022-10-31T20:09:04.832Z,18.73
2022-10-31T20:10:04.784Z,18.73
2022-10-31T20:11:04.746Z,18.81
2022-10-31T20:12:04.698Z,18.73
2022-10-31T20:13:04.757Z,18.73
2022-10-31T20:14:04.613Z,18.73
2022-10-31T20:15:04.577Z,18.67
2022-10-31T20:16:04.529Z,18.71
2022-10-31T20:17:04.489Z,18.76
2022-10-31T20:18:04.441Z,18.63
2022-10-31T20:19:04.398Z,18.64
2022-10-31T20:20:04.353Z,18.71
2022-10-31T20:21:05.049Z,18.61
2022-10-31T20:22:04.269Z,18.64
2022-10-31T20:23:04.320Z,18.57
2022-10-31T20:24:04.205Z,18.60
2022-10-31T20:25:04.142Z,18.57
2022-10-31T20:26:04.096Z,18.58
2022-10-31T20:27:04.053Z,18.51
2022-10-31T20:28:04.007Z,18.58
2022-10-31T20:29:03.980Z,18.60
2022-10-31T20:30:03.923Z,18.57
2022-10-31T20:31:03.883Z,18.53
2022-10-31T20:32:03.838Z,18.52
2022-10-31T20:33:04.180Z,18.57
2022-10-31T20:34:03.749Z,18.53
2022-10-31T20:35:03.712Z,18.53
2022-10-31T20:36:03.663Z,18.57
2022-10-31T20:37:03.623Z,18.57
2022-10-31T20:38:03.903Z,18.55
2022-10-31T20:39:03.539Z,18.45
2022-10-31T20:40:03.509Z,18.60
2022-10-31T20:41:03.448Z,18.46
2022-10-31T20:42:03.403Z,18.46
2022-10-31T20:43:03.368Z,18.42
2022-10-31T20:44:03.320Z,18.48
2022-10-31T20:45:03.285Z,18.55
2022-10-31T20:46:03.233Z,18.55
2022-10-31T20:47:03.188Z,18.57
2022-10-31T20:48:03.644Z,18.55
2022-10-31T20:49:03.103Z,18.55
2022-10-31T20:50:03.057Z,18.57
2022-10-31T20:51:03.077Z,18.57
2022-10-31T20:52:02.977Z,18.57
2022-10-31T20:53:03.433Z,18.55
2022-10-31T20:54:02.887Z,18.57
2022-10-31T20:55:02.849Z,18.45
2022-10-31T20:56:06.946Z,18.42
2022-10-31T20:57:02.758Z,18.55
2022-10-31T20:58:02.713Z,18.48
2022-10-31T20:59:02.671Z,18.55
2022-10-31T21:00:02.639Z,18.57
2022-10-31T21:01:02.664Z,18.43
2022-10-31T21:02:02.743Z,18.53
2022-10-31T21:03:02.866Z,18.61
2022-10-31T21:04:02.451Z,18.52
2022-10-31T21:05:02.410Z,18.52
2022-10-31T21:06:02.367Z,18.57
2022-10-31T21:07:02.332Z,18.58
2022-10-31T21:08:02.279Z,18.48
2022-10-31T21:09:02.237Z,18.55
2022-10-31T21:10:02.203Z,18.55
2022-10-31T21:11:02.154Z,18.57
2022-10-31T21:12:02.146Z,18.58
2022-10-31T21:14:02.024Z,18.49
2022-10-31T21:15:01.980Z,18.52
2022-10-31T21:16:01.941Z,18.53
2022-10-31T21:17:01.890Z,18.60
2022-10-31T21:18:01.852Z,18.57
2022-10-31T21:19:01.804Z,18.57
2022-10-31T21:20:01.764Z,18.58
2022-10-31T21:21:01.722Z,18.63
2022-10-31T21:23:30.116Z,18.53
2022-10-31T21:24:30.069Z,18.58
2022-10-31T21:25:30.026Z,18.57
2022-10-31T21:26:29.987Z,18.53
2022-10-31T21:27:29.954Z,18.52
2022-10-31T21:28:29.898Z,18.61
2022-10-31T21:29:29.863Z,18.63
2022-10-31T21:30:29.827Z,18.61
2022-10-31T21:31:29.766Z,18.57
2022-10-31T21:32:29.726Z,18.61
2022-10-31T21:33:29.689Z,18.61
2022-10-31T21:34:29.645Z,18.57
2022-10-31T21:35:29.597Z,18.52
2022-10-31T21:36:29.547Z,18.60
